createdAt,value
2023-01-03T00:04:56.340Z,78.67
2023-01-03T00:10:01.702Z,78.47
2023-01-03T00:15:05.927Z,78.39
2023-01-03T00:20:10.616Z,78.47
2023-01-03T00:25:14.639Z,78.64
2023-01-03T00:30:18.152Z,78.86
2023-01-03T00:35:21.563Z,78.97
2023-01-03T00:40:25.077Z,79.14
2023-01-03T00:45:33.628Z,79.39
2023-01-03T00:50:39.079Z,79.54
2023-01-03T00:55:42.699Z,79.60
2023-01-03T01:00:46.203Z,79.52
2023-01-03T01:05:49.725Z,79.52
2023-01-03T01:11:02.489Z,79.45
2023-01-03T01:16:09.979Z,79.33
2023-01-03T01:21:16.850Z,79.06
2023-01-03T01:26:22.729Z,78.99
2023-01-03T01:31:27.329Z,79.02
2023-01-03T01:36:34.399Z,78.92
2023-01-03T01:41:57.338Z,79.07
2023-01-03T01:47:02.489Z,78.76
2023-01-03T01:52:07.240Z,78.93
2023-01-03T01:57:16.194Z,78.59
2023-01-03T02:02:22.053Z,78.71
2023-01-03T02:07:25.774Z,78.50
2023-01-03T02:12:54.279Z,78.41
2023-01-03T02:18:15.818Z,78.35
2023-01-03T02:23:51.188Z,78.23
2023-01-03T02:29:18.240Z,78.16
2023-01-03T02:34:40.391Z,78.35
2023-01-03T02:39:54.456Z,78.15
2023-01-03T02:45:11.385Z,78.23
2023-01-03T02:50:15.758Z,78.06
2023-01-03T02:55:28.480Z,77.99
2023-01-03T03:00:34.509Z,78.10
2023-01-03T03:05:53.513Z,78.07
2023-01-03T03:11:16.275Z,78.00
2023-01-03T03:16:45.387Z,77.72
2023-01-03T03:22:08.358Z,78.12
2023-01-03T03:27:47.825Z,78.10
2023-01-03T03:32:54.591Z,78.41
2023-01-03T03:38:00.404Z,78.43
2023-01-03T03:43:51.919Z,78.31
2023-01-03T03:49:21.655Z,78.61
2023-01-03T03:54:28.123Z,78.80
2023-01-03T03:59:33.712Z,78.75
2023-01-03T04:04:42.540Z,78.68
2023-01-03T04:09:46.166Z,78.34
2023-01-03T04:14:49.674Z,78.54
2023-01-03T04:19:53.293Z,78.35
2023-01-03T04:24:57.114Z,77.93
2023-01-03T04:30:00.552Z,77.79
2023-01-03T04:35:04.517Z,77.86
2023-01-03T04:40:08.887Z,77.83
2023-01-03T04:45:12.510Z,78.19
2023-01-03T04:50:16.026Z,78.75
2023-01-03T04:55:19.441Z,78.78
2023-01-03T05:00:23.059Z,78.52
2023-01-03T05:05:26.570Z,78.30
2023-01-03T05:10:30.191Z,77.89
2023-01-03T05:15:37.595Z,78.06
2023-01-03T05:20:59.543Z,77.93
2023-01-03T05:26:07.262Z,77.52
2023-01-03T05:32:11.013Z,77.68
2023-01-03T05:37:14.705Z,77.63
2023-01-03T05:42:18.335Z,77.30
2023-01-03T05:47:21.964Z,77.06
2023-01-03T05:52:25.460Z,77.48
2023-01-03T05:57:35.120Z,77.52
2023-01-03T06:02:39.212Z,77.55
2023-01-03T06:07:42.769Z,77.67
2023-01-03T06:12:46.248Z,77.49
2023-01-03T06:17:58.056Z,77.70
2023-01-03T06:23:01.816Z,77.83
2023-01-03T06:28:05.323Z,78.12
2023-01-03T06:33:08.843Z,78.32
2023-01-03T06:38:39.388Z,78.16
2023-01-03T06:47:04.430Z,77.99
2023-01-03T06:52:33.243Z,78.18
2023-01-03T06:57:36.854Z,78.26
2023-01-03T07:02:40.538Z,78.17
2023-01-03T07:07:44.604Z,77.76
2023-01-03T07:13:07.062Z,77.69
2023-01-03T07:18:10.579Z,77.53
2023-01-03T07:23:14.604Z,77.41
2023-01-03T07:28:18.630Z,77.26
2023-01-03T07:33:22.151Z,77.06
2023-01-03T07:38:25.558Z,76.69
2023-01-03T07:43:38.401Z,76.82
2023-01-03T07:48:42.842Z,76.67
2023-01-03T07:53:46.140Z,76.37
2023-01-03T07:58:52.124Z,76.49
2023-01-03T08:03:55.936Z,76.44
2023-01-03T08:09:17.882Z,76.05
2023-01-03T08:14:25.655Z,75.70
2023-01-03T08:19:29.420Z,75.10
2023-01-03T08:24:32.936Z,74.13
2023-01-03T08:29:36.450Z,73.91
2023-01-03T08:34:44.521Z,74.00
2023-01-03T08:39:55.565Z,73.66
2023-01-03T08:45:03.804Z,73.04
2023-01-03T08:50:08.333Z,72.34
2023-01-03T08:55:11.749Z,72.21
2023-01-03T09:00:15.997Z,70.92
2023-01-03T09:05:19.602Z,70.01
2023-01-03T09:10:23.676Z,69.93
2023-01-03T09:15:27.134Z,69.60
2023-01-03T09:20:30.961Z,69.37
2023-01-03T09:25:37.373Z,69.52
2023-01-03T09:30:41.472Z,69.14
2023-01-03T09:35:44.990Z,69.11
2023-01-03T09:40:58.644Z,68.56
2023-01-03T09:46:02.463Z,67.24
2023-01-03T09:51:30.285Z,66.96
2023-01-03T09:56:52.721Z,66.03
2023-01-03T10:02:40.429Z,65.02
2023-01-03T10:08:03.946Z,63.92
2023-01-03T10:13:20.503Z,63.75
2023-01-03T10:18:59.519Z,63.51
2023-01-03T10:24:17.604Z,61.90
2023-01-03T10:29:21.405Z,62.78
2023-01-03T10:34:24.906Z,62.95
2023-01-03T10:39:32.657Z,62.88
2023-01-03T10:44:36.134Z,63.15
2023-01-03T10:49:45.696Z,62.77
2023-01-03T10:54:54.128Z,62.78
2023-01-03T10:59:57.644Z,62.93
2023-01-03T11:05:12.767Z,62.58
2023-01-03T11:10:18.801Z,61.98
2023-01-03T11:15:38.004Z,61.48
2023-01-03T11:20:51.019Z,60.63
2023-01-03T11:25:57.093Z,60.93
2023-01-03T11:31:09.420Z,61.35
2023-01-03T11:36:27.168Z,61.31
2023-01-03T11:41:33.344Z,61.62
2023-01-03T11:47:03.177Z,61.61
2023-01-03T11:52:12.530Z,61.71
2023-01-03T11:57:51.477Z,61.54
2023-01-03T12:03:29.471Z,61.78
2023-01-03T12:08:56.265Z,61.95
2023-01-03T12:14:14.730Z,62.49
2023-01-03T12:19:46.925Z,62.66
2023-01-03T12:25:02.540Z,62.94
2023-01-03T12:30:36.854Z,63.13
2023-01-03T12:36:05.970Z,63.46
2023-01-03T12:41:30.680Z,63.78
2023-01-03T12:46:37.187Z,64.71
2023-01-03T12:51:40.701Z,65.09
2023-01-03T12:56:44.199Z,65.69
2023-01-03T13:01:59.349Z,66.18
2023-01-03T13:07:26.356Z,66.22
2023-01-03T13:12:35.425Z,66.82
2023-01-03T13:17:48.130Z,67.03
2023-01-03T13:22:59.031Z,67.41
2023-01-03T13:28:29.998Z,68.00
2023-01-03T13:33:55.820Z,68.62
2023-01-03T13:39:00.642Z,69.24
2023-01-03T13:44:15.650Z,69.62
2023-01-03T13:49:28.445Z,70.08
2023-01-03T13:54:58.627Z,70.34
2023-01-03T14:00:09.750Z,71.32
2023-01-03T14:05:54.699Z,71.41
2023-01-03T14:11:36.893Z,71.90
2023-01-03T14:16:50.038Z,72.32
2023-01-03T14:22:21.190Z,72.63
2023-01-03T14:27:31.572Z,72.68
2023-01-03T14:32:36.245Z,72.88
2023-01-03T14:37:46.504Z,72.96
2023-01-03T14:42:49.843Z,73.03
2023-01-03T14:47:55.423Z,73.00
2023-01-03T14:53:01.401Z,73.09
2023-01-03T14:58:38.463Z,72.95
2023-01-03T15:03:46.278Z,72.96
2023-01-03T15:08:56.032Z,72.78
2023-01-03T15:14:03.671Z,72.74
2023-01-03T15:19:19.852Z,72.82
2023-01-03T15:24:24.104Z,72.57
2023-01-03T15:29:45.025Z,72.63
2023-01-03T15:34:50.101Z,72.74
2023-01-03T15:39:56.850Z,72.65
2023-01-03T15:45:00.712Z,72.35
2023-01-03T15:50:06.654Z,72.38
2023-01-03T15:55:12.997Z,72.46
2023-01-03T16:00:23.210Z,72.47
2023-01-03T16:05:26.561Z,72.28
2023-01-03T16:10:29.958Z,72.12
2023-01-03T16:15:33.468Z,72.10
2023-01-03T16:20:36.884Z,71.99
2023-01-03T16:25:40.253Z,71.78
2023-01-03T16:30:43.728Z,71.83
2023-01-03T16:35:48.350Z,72.01
2023-01-03T16:40:54.547Z,72.09
2023-01-03T16:45:59.924Z,72.18
2023-01-03T16:51:03.893Z,72.45
2023-01-03T16:56:10.102Z,72.27
2023-01-03T17:01:14.594Z,72.40
2023-01-03T17:06:37.991Z,72.63
2023-01-03T17:11:41.852Z,72.51
2023-01-03T17:16:45.546Z,72.68
2023-01-03T17:21:51.452Z,72.77
2023-01-03T17:27:03.543Z,72.67
2023-01-03T17:32:18.753Z,73.06
2023-01-03T17:37:23.283Z,73.13
2023-01-03T17:42:29.336Z,73.26
2023-01-03T17:47:52.422Z,73.56
2023-01-03T17:52:56.692Z,73.59
2023-01-03T17:58:03.242Z,73.65
2023-01-03T18:03:07.484Z,73.68
2023-01-03T18:08:18.408Z,73.89
2023-01-03T18:13:24.349Z,74.14
2023-01-03T18:18:29.277Z,74.03
2023-01-03T18:23:36.611Z,74.27
2023-01-03T18:28:40.201Z,74.24
2023-01-03T18:33:43.883Z,74.21
2023-01-03T18:38:48.185Z,74.44
2023-01-03T18:43:51.414Z,74.28
2023-01-03T18:48:55.230Z,74.32
2023-01-03T18:53:59.911Z,74.23
2023-01-03T18:59:13.584Z,74.19
2023-01-03T19:04:17.544Z,74.18
2023-01-03T19:09:26.440Z,74.26
2023-01-03T19:14:30.177Z,74.16
2023-01-03T19:19:33.991Z,74.17
2023-01-03T19:24:39.773Z,74.23
2023-01-03T19:29:44.905Z,74.25
2023-01-03T19:34:49.175Z,74.33
2023-01-03T19:39:54.987Z,74.48
2023-01-03T19:45:01.859Z,74.49
2023-01-03T19:50:23.783Z,74.45
2023-01-03T19:55:30.862Z,74.51
2023-01-03T20:00:37.148Z,74.61
2023-01-03T20:05:40.979Z,74.77
2023-01-03T20:10:45.150Z,74.91
2023-01-03T20:15:53.903Z,75.05
2023-01-03T20:21:26.873Z,75.45
2023-01-03T20:26:34.229Z,75.81
2023-01-03T20:31:39.581Z,75.90
2023-01-03T20:36:51.835Z,76.01
2023-01-03T20:42:03.274Z,76.10
2023-01-03T20:47:14.838Z,76.17
2023-01-03T20:52:20.830Z,76.37
2023-01-03T20:57:26.826Z,76.46
2023-01-03T21:02:32.746Z,76.49
2023-01-03T21:07:55.800Z,76.69
2023-01-03T21:26:15.603Z,77.51
2023-01-03T21:31:21.710Z,77.55
2023-01-03T21:36:31.451Z,77.92
2023-01-03T21:41:56.299Z,78.07
2023-01-03T21:46:59.878Z,78.39
2023-01-03T21:52:03.596Z,78.58
2023-01-03T21:57:07.116Z,78.63
2023-01-03T22:02:31.811Z,78.92
2023-01-03T22:07:35.554Z,79.31
2023-01-03T22:12:39.070Z,79.45
2023-01-03T22:17:43.189Z,79.62
2023-01-03T22:22:46.912Z,79.83
2023-01-03T22:27:50.734Z,79.93
2023-01-03T22:32:57.845Z,79.89
2023-01-03T22:38:01.248Z,79.94
2023-01-03T22:43:05.695Z,80.22
2023-01-03T22:48:09.107Z,80.32
2023-01-03T22:53:12.617Z,80.46
2023-01-03T22:58:17.871Z,80.96
2023-01-03T23:03:21.177Z,81.16
2023-01-03T23:08:24.697Z,81.44
2023-01-03T23:13:28.314Z,81.57
2023-01-03T23:18:33.777Z,81.69
2023-01-03T23:23:37.193Z,81.86
2023-01-03T23:28:40.702Z,82.11
2023-01-03T23:33:44.320Z,82.00
2023-01-03T23:38:47.840Z,82.28
2023-01-03T23:43:52.070Z,82.95
2023-01-03T23:48:57.235Z,83.26
2023-01-03T23:54:00.636Z,83.17
2023-01-03T23:59:04.557Z,83.30
